首页
METAR-TAF:

METAR-TAF

机场 :

Rusk_County_Airport

Ladysmith, 威斯康辛州, 美国

纬度: 45-29-48N, 经度: 091-00-01W, 海拔: 377米

当前天气观测

该预报发布于16分钟前的07:55 UTC
风速9节,风向西转西北
温度 -14°C
湿度 72%
气压 1013 hPa
能見度: 16.1公里
阴天层高于1700英尺

METAR: KRCX 100755Z AUTO 29009KT 10SM OVC017 M14/M18 A2992 RMK AO2 T11451178

时间: 02:11 (08:11 UTC)


TAF: 丢失

超过4000个机场的气象观测和天气预报(METAR&TAF报告)。

可查询的气象台以黄色和红色小点在地图上表示。

将鼠标移到小点上方,可查看气象台名称。

然后点击查看天气观测和预报。

如需切换地图:点击带黑十字的绿色按钮放大地图;点击带横线的绿色按钮缩小地图;或者点击绿色箭头查看邻近地区的地图。


METAR-TAF: